createdAt,value
2023-02-23T00:01:29.649Z,7.20
2023-02-23T00:03:58.125Z,7.20
2023-02-23T00:06:27.897Z,7.20
2023-02-23T00:08:54.958Z,7.30
2023-02-23T00:11:22.290Z,7.30
2023-02-23T00:13:50.549Z,7.30
2023-02-23T00:16:23.637Z,7.30
2023-02-23T00:18:53.735Z,7.30
2023-02-23T00:21:25.546Z,7.30
2023-02-23T00:23:54.917Z,7.30
2023-02-23T00:26:23.443Z,7.30
2023-02-23T00:28:54.043Z,7.20
2023-02-23T00:31:26.144Z,7.10
2023-02-23T00:33:58.525Z,7.10
2023-02-23T00:36:31.077Z,7.10
2023-02-23T00:39:00.616Z,7.10
2023-02-23T00:41:31.167Z,7.10
2023-02-23T00:44:00.136Z,7.10
2023-02-23T00:46:29.325Z,7.20
2023-02-23T00:48:58.039Z,7.20
2023-02-23T00:51:35.609Z,7.20
2023-02-23T00:54:02.352Z,7.20
2023-02-23T00:56:29.293Z,7.30
2023-02-23T00:58:56.773Z,7.30
2023-02-23T01:01:24.065Z,7.40
2023-02-23T01:03:50.770Z,7.30
2023-02-23T01:06:17.695Z,7.10
2023-02-23T01:08:50.793Z,7.10
2023-02-23T01:11:21.212Z,7.10
2023-02-23T01:13:50.046Z,7.10
2023-02-23T01:16:19.678Z,7.10
2023-02-23T01:18:47.082Z,7.20
2023-02-23T01:21:19.249Z,7.10
2023-02-23T01:23:46.593Z,7.10
2023-02-23T01:26:24.909Z,7.10
2023-02-23T01:29:00.694Z,7.10
2023-02-23T01:31:28.859Z,7.10
2023-02-23T01:33:57.936Z,7.10
2023-02-23T01:36:25.784Z,7.10
2023-02-23T01:38:56.483Z,7.10
2023-02-23T01:41:27.848Z,7.10
2023-02-23T01:44:27.968Z,7.10
2023-02-23T01:46:54.703Z,7.10
2023-02-23T01:49:26.555Z,7.10
2023-02-23T01:51:55.809Z,7.10
2023-02-23T01:54:26.481Z,7.10
2023-02-23T01:56:58.366Z,7.00
2023-02-23T01:59:34.263Z,7.00
2023-02-23T02:02:04.998Z,7.10
2023-02-23T02:04:44.510Z,7.00
2023-02-23T02:07:23.688Z,7.00
2023-02-23T02:10:12.870Z,7.00
2023-02-23T02:12:42.674Z,6.90
2023-02-23T02:15:17.517Z,6.90
2023-02-23T02:18:03.356Z,6.90
2023-02-23T02:20:38.368Z,6.90
2023-02-23T02:23:36.834Z,6.80
2023-02-23T02:26:20.967Z,6.80
2023-02-23T02:28:47.807Z,6.90
2023-02-23T02:31:15.644Z,6.90
2023-02-23T02:34:07.367Z,6.90
2023-02-23T02:36:51.050Z,6.90
2023-02-23T02:39:54.714Z,6.90
2023-02-23T02:42:35.862Z,6.90
2023-02-23T02:45:17.800Z,6.90
2023-02-23T02:47:53.844Z,6.90
2023-02-23T02:50:52.960Z,6.90
2023-02-23T02:53:36.688Z,6.90
2023-02-23T02:56:05.752Z,7.00
2023-02-23T02:58:33.694Z,7.00
2023-02-23T03:01:31.209Z,7.00
2023-02-23T03:04:18.471Z,7.00
2023-02-23T03:07:17.692Z,7.10
2023-02-23T03:10:15.744Z,7.00
2023-02-23T03:13:15.856Z,6.90
2023-02-23T03:16:16.134Z,6.80
2023-02-23T03:19:13.438Z,6.80
2023-02-23T03:22:15.222Z,6.80
2023-02-23T03:25:33.167Z,6.80
2023-02-23T03:28:27.654Z,6.90
2023-02-23T03:31:46.669Z,6.90
2023-02-23T03:34:51.810Z,6.90
2023-02-23T03:37:43.476Z,6.90
2023-02-23T03:40:35.404Z,6.90
2023-02-23T03:43:25.519Z,6.90
2023-02-23T03:46:14.217Z,6.90
2023-02-23T03:49:02.129Z,6.90
2023-02-23T03:51:50.450Z,6.90
2023-02-23T03:54:51.815Z,6.90
2023-02-23T03:57:40.261Z,6.90
2023-02-23T04:00:33.548Z,7.00
2023-02-23T04:03:20.119Z,7.00
2023-02-23T04:06:07.705Z,7.00
2023-02-23T04:08:56.646Z,7.00
2023-02-23T04:12:06.646Z,7.10
2023-02-23T04:14:42.225Z,7.10
2023-02-23T04:17:10.588Z,7.10
2023-02-23T04:19:37.320Z,7.00
2023-02-23T04:22:04.120Z,6.90
2023-02-23T04:24:30.825Z,6.90
2023-02-23T04:26:57.590Z,6.90
2023-02-23T04:29:24.377Z,6.90
2023-02-23T04:31:51.211Z,6.90
2023-02-23T04:34:17.921Z,6.90
2023-02-23T04:36:44.794Z,6.90
2023-02-23T04:39:11.507Z,6.90
2023-02-23T04:41:38.248Z,7.00
2023-02-23T04:44:05.109Z,6.90
2023-02-23T04:46:32.381Z,6.90
2023-02-23T04:48:59.223Z,6.90
2023-02-23T04:51:30.802Z,6.90
2023-02-23T04:53:58.142Z,7.00
2023-02-23T04:56:25.001Z,7.00
2023-02-23T04:58:52.269Z,6.90
2023-02-23T05:01:21.013Z,6.90
2023-02-23T05:03:49.088Z,6.90
2023-02-23T05:06:17.560Z,6.90
2023-02-23T05:08:45.924Z,6.90
2023-02-23T05:11:12.750Z,6.90
2023-02-23T05:13:39.714Z,6.90
2023-02-23T05:16:07.038Z,6.90
2023-02-23T05:18:33.792Z,6.90
2023-02-23T05:21:08.962Z,6.90
2023-02-23T05:23:36.399Z,6.90
2023-02-23T05:26:05.832Z,6.90
2023-02-23T05:28:34.523Z,6.90
2023-02-23T05:31:03.637Z,6.90
2023-02-23T05:33:31.659Z,6.90
2023-02-23T05:35:58.950Z,6.90
2023-02-23T05:38:27.265Z,6.90
2023-02-23T05:40:54.798Z,6.90
2023-02-23T05:43:21.563Z,6.90
2023-02-23T05:45:48.370Z,6.90
2023-02-23T05:48:15.225Z,6.90
2023-02-23T05:50:42.019Z,6.90
2023-02-23T05:53:08.966Z,6.90
2023-02-23T05:55:36.297Z,6.90
2023-02-23T05:58:03.000Z,6.90
2023-02-23T06:00:29.681Z,6.90
2023-02-23T06:02:56.581Z,6.90
2023-02-23T06:05:23.304Z,6.90
2023-02-23T06:07:50.065Z,6.90
2023-02-23T06:10:17.349Z,6.90
2023-02-23T06:12:44.038Z,6.90
2023-02-23T06:15:11.197Z,6.90
2023-02-23T06:17:37.955Z,6.80
2023-02-23T06:20:07.344Z,6.90
2023-02-23T06:22:34.289Z,6.80
2023-02-23T06:25:04.678Z,6.80
2023-02-23T06:27:31.979Z,6.80
2023-02-23T06:29:58.724Z,6.80
2023-02-23T06:32:27.013Z,6.80
2023-02-23T06:34:53.783Z,6.80
2023-02-23T06:37:20.495Z,6.80
2023-02-23T06:39:47.263Z,6.80
2023-02-23T06:42:14.087Z,6.80
2023-02-23T06:44:40.805Z,6.80
2023-02-23T06:47:07.663Z,6.80
2023-02-23T06:49:34.417Z,6.80
2023-02-23T06:52:01.146Z,6.80
2023-02-23T06:54:27.870Z,6.80
2023-02-23T06:56:56.625Z,6.80
2023-02-23T06:59:24.245Z,6.80
2023-02-23T07:01:51.292Z,6.80
2023-02-23T07:04:18.110Z,6.80
2023-02-23T07:06:44.924Z,6.70
2023-02-23T07:09:11.660Z,6.80
2023-02-23T07:11:39.452Z,6.80
2023-02-23T07:14:07.669Z,6.80
2023-02-23T07:16:36.781Z,6.80
2023-02-23T07:19:06.745Z,6.80
2023-02-23T07:21:34.162Z,6.80
2023-02-23T07:24:03.396Z,6.80
2023-02-23T07:26:30.604Z,6.80
2023-02-23T07:28:57.259Z,6.80
2023-02-23T07:31:24.092Z,6.80
2023-02-23T07:33:50.942Z,6.80
2023-02-23T07:36:17.678Z,6.80
2023-02-23T07:38:44.415Z,6.90
2023-02-23T07:41:11.109Z,6.90
2023-02-23T07:43:37.843Z,6.90
2023-02-23T07:46:04.757Z,7.00
2023-02-23T07:48:31.901Z,7.00
2023-02-23T07:50:58.690Z,7.00
2023-02-23T07:53:27.778Z,7.00
2023-02-23T07:55:58.226Z,7.10
2023-02-23T07:58:24.990Z,7.10
2023-02-23T08:00:51.886Z,7.10
2023-02-23T08:03:18.737Z,7.20
2023-02-23T08:05:45.446Z,7.20
2023-02-23T08:08:13.210Z,7.30
2023-02-23T08:10:40.174Z,7.40
2023-02-23T08:13:07.165Z,7.40
2023-02-23T08:15:33.878Z,7.50
2023-02-23T08:18:00.649Z,7.50
2023-02-23T08:20:27.754Z,7.50
2023-02-23T08:22:58.120Z,7.50
2023-02-23T08:25:25.273Z,7.60
2023-02-23T08:27:52.700Z,7.60
2023-02-23T08:30:21.314Z,7.60
2023-02-23T08:32:48.637Z,7.70
2023-02-23T08:35:15.816Z,7.70
2023-02-23T08:37:42.538Z,7.70
2023-02-23T08:40:10.143Z,7.70
2023-02-23T08:42:37.309Z,7.70
2023-02-23T08:45:04.327Z,7.80
2023-02-23T08:47:31.099Z,7.80
2023-02-23T08:49:57.847Z,7.90
2023-02-23T08:52:25.413Z,7.90
2023-02-23T08:54:52.107Z,8.00
2023-02-23T08:57:19.303Z,8.00
2023-02-23T08:59:46.004Z,8.10
2023-02-23T09:02:13.910Z,8.10
2023-02-23T09:04:43.902Z,8.20
2023-02-23T09:07:15.987Z,8.30
2023-02-23T09:09:42.735Z,8.30
2023-02-23T09:12:09.543Z,8.30
2023-02-23T09:14:37.130Z,8.40
2023-02-23T09:17:04.327Z,8.40
2023-02-23T09:19:31.098Z,8.50
2023-02-23T09:21:57.891Z,8.50
2023-02-23T09:24:24.605Z,8.50
2023-02-23T09:26:53.563Z,8.50
2023-02-23T09:29:20.351Z,8.60
2023-02-23T09:31:47.278Z,8.60
2023-02-23T09:34:14.074Z,8.70
2023-02-23T09:36:40.803Z,8.70
2023-02-23T09:39:07.619Z,8.80
2023-02-23T09:42:08.086Z,8.80
2023-02-23T09:45:05.120Z,8.90
2023-02-23T09:48:05.145Z,8.90
2023-02-23T09:50:34.956Z,9.00
2023-02-23T09:53:21.129Z,9.10
2023-02-23T09:55:50.090Z,9.20
2023-02-23T09:58:28.640Z,9.30
2023-02-23T10:01:34.600Z,9.30
2023-02-23T10:04:20.489Z,9.40
2023-02-23T10:06:59.898Z,9.60
2023-02-23T10:09:52.019Z,9.70
2023-02-23T10:12:21.701Z,9.80
2023-02-23T10:15:25.233Z,9.90
2023-02-23T10:17:55.113Z,10.00
2023-02-23T10:20:32.612Z,10.00
2023-02-23T10:23:06.821Z,10.10
2023-02-23T10:25:40.270Z,10.10
2023-02-23T10:28:14.916Z,10.10
2023-02-23T10:30:42.200Z,10.10
2023-02-23T10:33:16.615Z,10.10
2023-02-23T10:35:44.142Z,10.10
2023-02-23T10:38:19.017Z,10.10
2023-02-23T10:40:54.146Z,10.10
2023-02-23T10:43:21.281Z,10.20
2023-02-23T10:45:51.023Z,10.30
2023-02-23T10:48:27.751Z,10.30
2023-02-23T10:51:02.735Z,10.30
2023-02-23T10:53:35.825Z,10.40
2023-02-23T10:56:07.961Z,10.40
2023-02-23T10:59:00.766Z,10.40
2023-02-23T11:02:02.054Z,10.50
2023-02-23T11:04:32.182Z,10.50
2023-02-23T11:07:22.719Z,10.50
2023-02-23T11:09:51.566Z,10.60
2023-02-23T11:12:24.067Z,10.60
2023-02-23T11:14:53.889Z,10.60
2023-02-23T11:17:36.348Z,10.70
2023-02-23T11:20:30.393Z,10.70
2023-02-23T11:23:03.635Z,10.80
2023-02-23T11:25:37.583Z,10.70
2023-02-23T11:28:04.939Z,10.70
2023-02-23T11:30:42.804Z,10.80
2023-02-23T11:33:17.596Z,10.70
2023-02-23T11:35:44.975Z,10.80
2023-02-23T11:38:22.380Z,10.80
2023-02-23T11:41:04.213Z,10.90
2023-02-23T11:43:31.185Z,10.90
2023-02-23T11:46:00.561Z,11.00
2023-02-23T11:48:27.237Z,11.00
2023-02-23T11:50:55.665Z,11.10
2023-02-23T11:53:36.304Z,11.20
2023-02-23T11:56:11.214Z,11.20
2023-02-23T11:58:46.568Z,11.20
2023-02-23T12:01:17.513Z,11.20
2023-02-23T12:03:55.052Z,11.20
2023-02-23T12:06:38.918Z,11.30
2023-02-23T12:09:29.581Z,11.30
2023-02-23T12:12:19.533Z,11.40
2023-02-23T12:15:02.379Z,11.50
2023-02-23T12:17:38.478Z,11.70
2023-02-23T12:20:21.462Z,11.90
2023-02-23T12:23:08.548Z,11.90
2023-02-23T12:25:47.103Z,11.80
2023-02-23T12:28:31.852Z,11.80
2023-02-23T12:31:18.830Z,11.70
2023-02-23T12:33:53.207Z,11.70
2023-02-23T12:36:47.634Z,11.60
2023-02-23T12:39:27.945Z,11.60
2023-02-23T12:42:37.770Z,11.50
2023-02-23T12:45:06.689Z,11.50
2023-02-23T12:47:42.153Z,11.50
2023-02-23T12:50:21.336Z,11.50
2023-02-23T12:53:15.395Z,11.50
2023-02-23T12:55:50.888Z,11.50
2023-02-23T12:58:32.871Z,11.50
2023-02-23T13:01:29.047Z,11.50
2023-02-23T13:04:26.598Z,11.50
2023-02-23T13:06:56.090Z,11.50
2023-02-23T13:09:52.151Z,11.50
2023-02-23T13:13:05.786Z,11.50
2023-02-23T13:15:55.903Z,11.50
2023-02-23T13:18:38.904Z,11.50
2023-02-23T13:21:21.923Z,11.50
2023-02-23T13:23:57.372Z,11.50
2023-02-23T13:26:47.442Z,11.50
2023-02-23T13:29:45.113Z,11.50
2023-02-23T13:32:20.838Z,11.40
2023-02-23T13:34:56.748Z,11.40
2023-02-23T13:37:50.085Z,11.40
2023-02-23T13:40:38.615Z,11.50
2023-02-23T13:43:29.039Z,11.50
2023-02-23T13:46:19.244Z,11.50
2023-02-23T13:49:02.163Z,11.50
2023-02-23T13:51:49.130Z,11.50
2023-02-23T13:54:16.431Z,11.50
2023-02-23T13:56:54.737Z,11.50
2023-02-23T13:59:25.987Z,11.40
2023-02-23T14:01:54.575Z,11.50
2023-02-23T14:04:26.561Z,11.50
2023-02-23T14:07:11.042Z,11.50
2023-02-23T14:09:42.477Z,11.50
2023-02-23T14:12:19.384Z,11.50
2023-02-23T14:14:47.115Z,11.70
2023-02-23T14:17:20.482Z,11.50
2023-02-23T14:20:24.342Z,11.50
2023-02-23T14:23:16.386Z,11.60
2023-02-23T14:25:49.053Z,11.50
2023-02-23T14:28:34.872Z,11.60
2023-02-23T14:31:01.631Z,11.60
2023-02-23T14:33:46.883Z,11.50
2023-02-23T14:36:25.661Z,11.60
2023-02-23T14:39:01.022Z,11.60
2023-02-23T14:41:50.274Z,11.60
2023-02-23T14:44:31.142Z,11.70
2023-02-23T14:47:13.502Z,11.60
2023-02-23T14:49:54.702Z,11.60
2023-02-23T14:52:33.134Z,11.60
2023-02-23T14:55:21.622Z,11.60
2023-02-23T14:57:49.221Z,11.60
2023-02-23T15:00:24.072Z,11.60
2023-02-23T15:03:09.079Z,11.60
2023-02-23T15:06:00.451Z,11.50
2023-02-23T15:08:29.696Z,11.50
2023-02-23T15:11:15.136Z,11.50
2023-02-23T15:13:47.935Z,11.50
2023-02-23T15:16:19.479Z,11.40
2023-02-23T15:18:46.186Z,11.30
2023-02-23T15:21:25.061Z,11.30
2023-02-23T15:24:10.832Z,11.30
2023-02-23T15:26:40.386Z,11.30
2023-02-23T15:29:16.048Z,11.30
2023-02-23T15:31:55.089Z,11.30
2023-02-23T15:34:27.976Z,11.30
2023-02-23T15:37:04.879Z,11.20
2023-02-23T15:39:41.991Z,11.20
2023-02-23T15:42:15.829Z,11.10
2023-02-23T15:44:45.102Z,11.10
2023-02-23T15:47:22.411Z,11.10
2023-02-23T15:49:50.256Z,11.00
2023-02-23T15:52:22.595Z,11.00
2023-02-23T15:55:00.016Z,10.90
2023-02-23T15:57:32.356Z,10.90
2023-02-23T16:00:01.694Z,10.90
2023-02-23T16:02:30.179Z,10.90
2023-02-23T16:05:06.163Z,10.90
2023-02-23T16:07:43.087Z,10.90
2023-02-23T16:10:23.687Z,10.90
2023-02-23T16:12:52.965Z,10.90
2023-02-23T16:15:29.569Z,10.80
2023-02-23T16:18:00.884Z,10.80
2023-02-23T16:20:41.478Z,10.80
2023-02-23T16:23:33.580Z,10.80
2023-02-23T16:26:24.203Z,10.80
2023-02-23T16:28:59.769Z,10.80
2023-02-23T16:31:45.973Z,10.80
2023-02-23T16:34:18.869Z,10.80
2023-02-23T16:36:58.306Z,10.80
2023-02-23T16:39:29.307Z,10.70
2023-02-23T16:41:58.595Z,10.70
2023-02-23T16:44:34.365Z,10.70
2023-02-23T16:47:08.485Z,10.70
2023-02-23T16:49:35.222Z,10.70
2023-02-23T16:52:14.482Z,10.70
2023-02-23T16:54:41.182Z,10.70
2023-02-23T16:57:24.888Z,10.60
2023-02-23T16:59:53.544Z,10.60
2023-02-23T17:02:22.756Z,10.60
2023-02-23T17:04:51.682Z,10.60
2023-02-23T17:07:23.164Z,10.50
2023-02-23T17:09:50.917Z,10.60
2023-02-23T17:12:21.715Z,10.50
2023-02-23T17:14:50.272Z,10.40
2023-02-23T17:17:18.792Z,10.40
2023-02-23T17:19:46.608Z,10.30
2023-02-23T17:22:13.891Z,10.30
2023-02-23T17:24:41.927Z,10.30
2023-02-23T17:27:08.769Z,10.20
2023-02-23T17:29:35.436Z,10.20
2023-02-23T17:32:03.279Z,10.20
2023-02-23T17:34:30.907Z,10.20
2023-02-23T17:37:07.499Z,10.30
2023-02-23T17:39:37.358Z,10.20
2023-02-23T17:42:04.238Z,10.20
2023-02-23T17:44:31.188Z,10.10
2023-02-23T17:46:58.001Z,10.10
2023-02-23T17:49:28.476Z,10.10
2023-02-23T17:51:55.280Z,10.10
2023-02-23T17:54:22.133Z,10.10
2023-02-23T17:56:48.829Z,10.10
2023-02-23T17:59:15.555Z,10.10
2023-02-23T18:01:42.489Z,10.10
2023-02-23T18:04:09.168Z,10.00
2023-02-23T18:06:35.896Z,10.00
2023-02-23T18:09:05.848Z,10.10
2023-02-23T18:11:36.737Z,10.10
2023-02-23T18:14:03.755Z,10.10
2023-02-23T18:16:30.602Z,10.00
2023-02-23T18:19:00.485Z,10.00
2023-02-23T18:21:27.420Z,10.00
2023-02-23T18:23:54.313Z,10.00
2023-02-23T18:26:23.507Z,10.00
2023-02-23T18:28:51.103Z,9.90
2023-02-23T18:31:22.286Z,9.90
2023-02-23T18:33:52.916Z,9.80
2023-02-23T18:36:28.396Z,9.80
2023-02-23T18:38:57.168Z,9.80
2023-02-23T18:41:25.114Z,9.90
2023-02-23T18:43:52.216Z,9.90
2023-02-23T18:46:19.453Z,9.90
2023-02-23T18:48:50.386Z,9.90
2023-02-23T18:51:18.512Z,9.80
2023-02-23T18:53:45.539Z,9.80
2023-02-23T18:56:22.816Z,9.80
2023-02-23T18:58:52.473Z,9.80
2023-02-23T19:01:23.081Z,9.80
2023-02-23T19:03:52.248Z,9.80
2023-02-23T19:06:21.315Z,9.90
2023-02-23T19:08:57.356Z,9.90
2023-02-23T19:11:29.269Z,9.90
2023-02-23T19:13:58.429Z,9.90
2023-02-23T19:16:27.918Z,9.80
2023-02-23T19:18:54.732Z,9.80
2023-02-23T19:21:24.582Z,9.80
2023-02-23T19:23:52.751Z,9.80
2023-02-23T19:26:21.388Z,9.80
2023-02-23T19:28:48.985Z,9.70
2023-02-23T19:31:20.751Z,9.60
2023-02-23T19:33:49.620Z,9.60
2023-02-23T19:36:19.248Z,9.60
2023-02-23T19:38:46.022Z,9.60
2023-02-23T19:41:20.302Z,9.60
2023-02-23T19:43:47.596Z,9.60
2023-02-23T19:46:17.286Z,9.60
2023-02-23T19:48:48.568Z,9.60
2023-02-23T19:51:15.300Z,9.50
2023-02-23T19:53:41.994Z,9.50
2023-02-23T19:56:12.252Z,9.50
2023-02-23T19:58:43.007Z,9.40
2023-02-23T20:01:12.358Z,9.40
2023-02-23T20:03:43.081Z,9.40
2023-02-23T20:06:15.304Z,9.50
2023-02-23T20:08:44.622Z,9.50
2023-02-23T20:11:12.048Z,9.50
2023-02-23T20:13:39.070Z,9.50
2023-02-23T20:16:09.088Z,9.50
2023-02-23T20:18:38.600Z,9.50
2023-02-23T20:21:23.114Z,9.50
2023-02-23T20:23:51.010Z,9.50
2023-02-23T20:26:29.103Z,9.40
2023-02-23T20:28:57.053Z,9.40
2023-02-23T20:31:26.907Z,9.40
2023-02-23T20:33:56.334Z,9.50
2023-02-23T20:36:24.548Z,9.40
2023-02-23T20:38:52.092Z,9.50
2023-02-23T20:41:20.309Z,9.40
2023-02-23T20:43:47.493Z,9.30
2023-02-23T20:46:16.411Z,9.30
2023-02-23T20:48:43.676Z,9.20
2023-02-23T20:51:19.059Z,9.20
2023-02-23T20:53:48.123Z,9.20
2023-02-23T20:56:17.069Z,9.20
2023-02-23T20:58:44.766Z,9.10
2023-02-23T21:01:22.728Z,9.10
2023-02-23T21:03:51.599Z,9.10
2023-02-23T21:06:20.020Z,9.10
2023-02-23T21:08:49.031Z,9.10
2023-02-23T21:11:18.096Z,9.30
2023-02-23T21:13:45.977Z,9.00
2023-02-23T21:16:15.025Z,9.00
2023-02-23T21:18:44.947Z,9.00
2023-02-23T21:21:15.345Z,8.90
2023-02-23T21:23:45.785Z,8.90
2023-02-23T21:26:16.001Z,8.90
2023-02-23T21:28:45.374Z,8.80
2023-02-23T21:31:14.093Z,8.80
2023-02-23T21:33:42.899Z,8.70
2023-02-23T21:36:11.315Z,8.80
2023-02-23T21:38:39.955Z,8.60
2023-02-23T21:41:07.799Z,8.60
2023-02-23T21:43:36.188Z,8.60
2023-02-23T21:46:11.720Z,8.60
2023-02-23T21:48:38.511Z,8.50
2023-02-23T21:51:07.684Z,8.40
2023-02-23T21:53:35.099Z,8.40
2023-02-23T21:56:13.149Z,8.30
2023-02-23T21:58:45.427Z,8.20
2023-02-23T22:01:18.894Z,8.20
2023-02-23T22:03:46.233Z,8.20
2023-02-23T22:06:18.553Z,8.20
2023-02-23T22:08:47.393Z,8.10
2023-02-23T22:11:17.589Z,8.10
2023-02-23T22:13:49.699Z,8.10
2023-02-23T22:16:19.118Z,8.10
2023-02-23T22:18:46.421Z,7.90
2023-02-23T22:21:13.452Z,7.80
2023-02-23T22:23:41.651Z,7.70
2023-02-23T22:26:09.005Z,7.70
2023-02-23T22:28:36.409Z,7.60
2023-02-23T22:31:08.320Z,7.60
2023-02-23T22:33:41.515Z,7.60
2023-02-23T22:36:13.160Z,7.60
2023-02-23T22:38:41.490Z,7.60
2023-02-23T22:41:14.554Z,7.50
2023-02-23T22:43:46.364Z,7.50
2023-02-23T22:46:15.386Z,7.50
2023-02-23T22:48:46.990Z,7.60
2023-02-23T22:51:16.659Z,7.60
2023-02-23T22:53:43.751Z,7.60
2023-02-23T22:56:11.047Z,7.60
2023-02-23T22:58:37.743Z,7.60
2023-02-23T23:01:09.771Z,7.60
2023-02-23T23:03:39.879Z,7.60
2023-02-23T23:06:09.601Z,7.60
2023-02-23T23:08:39.159Z,7.60
2023-02-23T23:11:11.970Z,7.60
2023-02-23T23:13:48.363Z,7.60
2023-02-23T23:16:31.000Z,7.60
2023-02-23T23:19:12.230Z,7.60
2023-02-23T23:21:40.876Z,7.60
2023-02-23T23:24:08.899Z,7.60
2023-02-23T23:26:40.676Z,7.70
2023-02-23T23:29:11.263Z,7.60
2023-02-23T23:31:40.034Z,7.60
2023-02-23T23:34:09.864Z,7.60
2023-02-23T23:36:43.012Z,7.60
2023-02-23T23:39:16.111Z,7.60
2023-02-23T23:41:46.077Z,7.60
2023-02-23T23:44:13.101Z,7.60
2023-02-23T23:46:42.976Z,7.50
2023-02-23T23:49:12.989Z,7.50
2023-02-23T23:51:49.890Z,7.50
2023-02-23T23:54:22.824Z,7.50
2023-02-23T23:56:50.580Z,7.50
2023-02-23T23:59:20.422Z,7.50
